createdAt,value
2022-08-04T00:02:13.406Z,100.00
2022-08-04T00:04:47.497Z,100.00
2022-08-04T00:07:21.750Z,100.00
2022-08-04T00:10:09.239Z,100.00
2022-08-04T00:12:45.073Z,100.00
2022-08-04T00:15:15.040Z,100.00
2022-08-04T00:17:54.777Z,100.00
2022-08-04T00:20:21.866Z,100.00
2022-08-04T00:22:49.403Z,100.00
2022-08-04T00:25:15.938Z,100.00
2022-08-04T00:27:43.603Z,100.00
2022-08-04T00:30:10.377Z,100.00
2022-08-04T00:32:39.547Z,100.00
2022-08-04T00:35:08.260Z,100.00
2022-08-04T00:37:37.121Z,100.00
2022-08-04T00:40:13.927Z,100.00
2022-08-04T00:43:03.163Z,100.00
2022-08-04T00:46:15.694Z,100.00
2022-08-04T00:48:44.400Z,100.00
2022-08-04T00:51:13.545Z,100.00
2022-08-04T00:53:58.026Z,100.00
2022-08-04T00:56:56.713Z,100.00
2022-08-04T00:59:33.928Z,100.00
2022-08-04T01:02:14.129Z,100.00
2022-08-04T01:04:43.284Z,100.00
2022-08-04T01:07:37.107Z,100.00
2022-08-04T01:13:22.526Z,100.00
2022-08-04T01:15:56.479Z,100.00
2022-08-04T01:18:39.930Z,100.00
2022-08-04T01:21:42.638Z,100.00
2022-08-04T01:24:35.321Z,100.00
2022-08-04T01:27:43.760Z,100.00
2022-08-04T01:30:10.428Z,100.00
2022-08-04T01:32:39.101Z,100.00
2022-08-04T01:35:15.299Z,100.00
2022-08-04T01:38:18.322Z,100.00
2022-08-04T01:40:53.026Z,100.00
2022-08-04T01:43:20.484Z,100.00
2022-08-04T01:45:51.397Z,100.00
2022-08-04T01:48:24.930Z,100.00
2022-08-04T01:50:53.792Z,100.00
2022-08-04T01:53:21.813Z,100.00
2022-08-04T01:55:54.139Z,100.00
2022-08-04T01:58:23.873Z,100.00
2022-08-04T02:00:57.969Z,100.00
2022-08-04T02:03:24.496Z,100.00
2022-08-04T02:06:36.052Z,100.00
2022-08-04T02:09:20.876Z,100.00
2022-08-04T02:12:26.024Z,100.00
2022-08-04T02:15:27.727Z,100.00
2022-08-04T02:18:02.718Z,100.00
2022-08-04T02:20:37.203Z,100.00
2022-08-04T02:23:07.884Z,100.00
2022-08-04T02:25:43.754Z,100.00
2022-08-04T02:28:22.381Z,100.00
2022-08-04T02:31:06.787Z,100.00
2022-08-04T02:33:43.182Z,100.00
2022-08-04T02:36:14.156Z,100.00
2022-08-04T02:38:49.714Z,100.00
2022-08-04T02:41:18.024Z,100.00
2022-08-04T02:43:51.703Z,100.00
2022-08-04T02:46:21.261Z,100.00
2022-08-04T02:48:49.783Z,100.00
2022-08-04T02:51:20.055Z,100.00
2022-08-04T02:53:49.506Z,100.00
2022-08-04T02:56:20.208Z,100.00
2022-08-04T02:58:51.666Z,100.00
2022-08-04T03:01:18.373Z,100.00
2022-08-04T03:04:06.171Z,100.00
2022-08-04T03:06:44.413Z,100.00
2022-08-04T03:09:28.730Z,100.00
2022-08-04T03:12:13.936Z,100.00
2022-08-04T03:15:34.995Z,100.00
2022-08-04T03:18:39.117Z,100.00
2022-08-04T03:21:29.955Z,100.00
2022-08-04T03:24:19.620Z,100.00
2022-08-04T03:27:00.092Z,100.00
2022-08-04T03:29:59.010Z,100.00
2022-08-04T03:32:43.872Z,100.00
2022-08-04T03:35:40.027Z,100.00
2022-08-04T03:38:31.284Z,100.00
2022-08-04T03:41:06.513Z,100.00
2022-08-04T03:43:56.838Z,100.00
2022-08-04T03:46:45.045Z,100.00
2022-08-04T03:49:47.979Z,100.00
2022-08-04T03:52:48.460Z,100.00
2022-08-04T03:55:36.723Z,100.00
2022-08-04T03:58:18.279Z,100.00
2022-08-04T04:01:02.765Z,100.00
2022-08-04T04:03:41.362Z,100.00
2022-08-04T04:06:29.580Z,100.00
2022-08-04T04:09:20.696Z,100.00
2022-08-04T04:11:57.682Z,100.00
2022-08-04T04:14:46.091Z,100.00
2022-08-04T04:17:45.509Z,100.00
2022-08-04T04:20:25.499Z,100.00
2022-08-04T04:23:25.669Z,100.00
2022-08-04T04:26:06.470Z,100.00
2022-08-04T04:28:43.472Z,100.00
2022-08-04T04:31:46.160Z,100.00
2022-08-04T04:34:48.485Z,100.00
2022-08-04T04:37:22.005Z,100.00
2022-08-04T04:40:32.764Z,100.00
2022-08-04T04:43:17.464Z,100.00
2022-08-04T04:46:10.383Z,100.00
2022-08-04T04:48:53.209Z,100.00
2022-08-04T04:51:31.532Z,100.00
2022-08-04T04:54:16.011Z,100.00
2022-08-04T04:57:05.203Z,100.00
2022-08-04T04:59:35.564Z,100.00
2022-08-04T05:02:23.368Z,100.00
2022-08-04T05:05:26.780Z,100.00
2022-08-04T05:08:43.182Z,100.00
2022-08-04T05:11:33.274Z,100.00
2022-08-04T05:14:44.455Z,100.00
2022-08-04T05:17:53.991Z,100.00
2022-08-04T05:20:25.748Z,100.00
2022-08-04T05:23:02.015Z,100.00
2022-08-04T05:25:37.545Z,100.00
2022-08-04T05:28:10.772Z,100.00
2022-08-04T05:30:48.400Z,100.00
2022-08-04T05:33:19.092Z,100.00
2022-08-04T05:36:17.854Z,100.00
2022-08-04T05:38:39.403Z,100.00
2022-08-04T05:43:35.533Z,100.00
2022-08-04T05:46:02.892Z,100.00
2022-08-04T05:48:32.290Z,100.00
2022-08-04T05:51:01.202Z,100.00
2022-08-04T05:53:29.150Z,100.00
2022-08-04T05:55:58.750Z,100.00
2022-08-04T05:58:29.429Z,100.00
2022-08-04T06:00:56.810Z,100.00
2022-08-04T06:03:24.983Z,100.00
2022-08-04T06:05:52.101Z,100.00
2022-08-04T06:08:19.453Z,100.00
2022-08-04T06:10:48.186Z,100.00
2022-08-04T06:13:47.883Z,100.00
2022-08-04T06:16:08.221Z,100.00
2022-08-04T06:19:59.982Z,100.00
2022-08-04T06:21:38.733Z,100.00
2022-08-04T06:24:10.597Z,100.00
2022-08-04T06:26:38.503Z,100.00
2022-08-04T06:29:05.540Z,100.00
2022-08-04T06:32:31.125Z,100.00
2022-08-04T06:34:32.524Z,100.00
2022-08-04T06:36:59.607Z,100.00
2022-08-04T06:39:28.254Z,100.00
2022-08-04T06:42:17.178Z,100.00
2022-08-04T06:44:44.309Z,100.00
2022-08-04T06:47:13.898Z,100.00
2022-08-04T06:51:28.024Z,100.00
2022-08-04T06:52:30.948Z,100.00
2022-08-04T06:54:58.997Z,100.00
2022-08-04T06:57:27.872Z,100.00
2022-08-04T07:00:00.679Z,100.00
2022-08-04T07:02:31.361Z,100.00
2022-08-04T07:04:58.120Z,100.00
2022-08-04T07:07:33.955Z,99.84
2022-08-04T07:10:04.256Z,98.86
2022-08-04T07:12:32.398Z,97.40
2022-08-04T07:14:59.424Z,95.81
2022-08-04T07:17:28.836Z,92.98
2022-08-04T07:20:01.854Z,90.79
2022-08-04T07:22:28.688Z,89.67
2022-08-04T07:24:57.069Z,89.38
2022-08-04T07:27:48.324Z,88.18
2022-08-04T07:30:11.524Z,86.93
2022-08-04T07:32:38.665Z,85.56
2022-08-04T07:35:07.148Z,84.51
2022-08-04T07:37:40.158Z,83.05
2022-08-04T07:40:07.656Z,82.74
2022-08-04T07:42:34.955Z,82.31
2022-08-04T07:45:01.548Z,80.07
2022-08-04T07:47:28.391Z,78.09
2022-08-04T07:49:57.697Z,77.50
2022-08-04T07:52:26.384Z,75.86
2022-08-04T07:54:54.502Z,75.78
2022-08-04T07:57:40.235Z,74.46
2022-08-04T08:00:08.697Z,72.68
2022-08-04T08:02:36.468Z,71.26
2022-08-04T08:05:03.241Z,71.33
2022-08-04T08:07:29.740Z,68.54
2022-08-04T08:09:56.466Z,68.45
2022-08-04T08:12:37.745Z,67.30
2022-08-04T08:15:13.303Z,66.75
2022-08-04T08:17:58.664Z,64.11
2022-08-04T08:20:28.872Z,62.05
2022-08-04T08:22:56.563Z,61.01
2022-08-04T08:25:23.331Z,60.69
2022-08-04T08:27:56.465Z,59.30
2022-08-04T08:30:24.265Z,58.75
2022-08-04T08:32:51.026Z,57.71
2022-08-04T08:35:18.348Z,56.01
2022-08-04T08:37:56.431Z,53.46
2022-08-04T08:41:07.291Z,52.55
2022-08-04T08:44:06.105Z,54.51
2022-08-04T08:47:01.401Z,51.73
2022-08-04T08:50:02.979Z,50.38
2022-08-04T08:52:57.703Z,50.04
2022-08-04T08:55:42.653Z,50.65
2022-08-04T08:58:35.735Z,50.62
2022-08-04T09:01:12.207Z,49.20
2022-08-04T09:04:03.500Z,48.37
2022-08-04T09:06:42.700Z,48.44
2022-08-04T09:09:22.168Z,47.55
2022-08-04T09:12:15.879Z,46.73
2022-08-04T09:15:04.196Z,46.55
2022-08-04T09:17:40.787Z,46.28
2022-08-04T09:20:36.999Z,46.24
2022-08-04T09:23:31.413Z,45.31
2022-08-04T09:26:16.714Z,44.63
2022-08-04T09:29:03.375Z,44.11
2022-08-04T09:31:51.624Z,43.52
2022-08-04T09:34:43.996Z,44.11
2022-08-04T09:37:17.021Z,42.71
2022-08-04T09:40:01.771Z,42.62
2022-08-04T09:42:48.219Z,41.33
2022-08-04T09:45:42.400Z,41.21
2022-08-04T09:48:15.190Z,41.28
2022-08-04T09:50:49.765Z,41.32
2022-08-04T09:53:35.625Z,39.48
2022-08-04T09:56:03.498Z,39.95
2022-08-04T09:58:50.517Z,37.72
2022-08-04T10:01:23.420Z,38.57
2022-08-04T10:03:54.955Z,38.43
2022-08-04T10:06:49.099Z,36.55
2022-08-04T10:09:27.907Z,36.53
2022-08-04T10:11:57.340Z,37.65
2022-08-04T10:14:49.098Z,36.31
2022-08-04T10:17:43.620Z,35.59
2022-08-04T10:20:56.419Z,36.77
2022-08-04T10:23:56.755Z,36.65
2022-08-04T10:26:48.699Z,37.28
2022-08-04T10:29:22.528Z,37.36
2022-08-04T10:31:59.135Z,37.42
2022-08-04T10:34:29.925Z,37.82
2022-08-04T10:37:02.381Z,37.76
2022-08-04T10:40:10.686Z,36.40
2022-08-04T10:42:47.082Z,36.37
2022-08-04T10:45:25.144Z,34.51
2022-08-04T10:48:07.305Z,34.54
2022-08-04T10:50:43.039Z,33.68
2022-08-04T10:53:20.376Z,32.17
2022-08-04T10:56:06.324Z,32.14
2022-08-04T10:58:47.835Z,31.18
2022-08-04T11:02:00.007Z,30.88
2022-08-04T11:04:15.871Z,30.93
2022-08-04T11:06:56.385Z,30.56
2022-08-04T11:09:23.106Z,30.26
2022-08-04T11:12:15.606Z,28.99
2022-08-04T11:14:58.269Z,28.73
2022-08-04T11:17:29.964Z,27.78
2022-08-04T11:20:34.146Z,27.38
2022-08-04T11:23:05.736Z,27.24
2022-08-04T11:25:56.240Z,25.50
2022-08-04T11:28:37.246Z,26.76
2022-08-04T11:31:07.857Z,26.21
2022-08-04T11:33:58.585Z,25.42
2022-08-04T11:37:00.748Z,25.92
2022-08-04T11:39:42.404Z,24.98
2022-08-04T11:42:26.409Z,25.43
2022-08-04T11:45:05.799Z,24.71
2022-08-04T11:48:00.628Z,24.61
2022-08-04T11:50:45.068Z,24.96
2022-08-04T11:53:19.251Z,24.89
2022-08-04T11:56:06.908Z,24.58
2022-08-04T11:58:35.594Z,24.75
2022-08-04T12:01:21.793Z,23.66
2022-08-04T12:04:13.493Z,23.85
2022-08-04T12:07:29.998Z,23.92
2022-08-04T12:10:12.645Z,23.77
2022-08-04T12:12:46.259Z,24.47
2022-08-04T12:15:31.008Z,24.23
2022-08-04T12:18:16.013Z,24.47
2022-08-04T12:20:49.550Z,24.66
2022-08-04T12:23:23.148Z,24.44
2022-08-04T12:25:54.599Z,24.91
2022-08-04T12:31:40.327Z,24.50
2022-08-04T12:34:15.890Z,24.59
2022-08-04T12:36:58.839Z,24.20
2022-08-04T12:39:27.433Z,24.91
2022-08-04T12:42:03.252Z,24.70
2022-08-04T12:44:39.413Z,24.64
2022-08-04T12:47:27.132Z,24.46
2022-08-04T12:50:00.877Z,25.08
2022-08-04T12:55:20.266Z,25.14
2022-08-04T12:57:49.448Z,25.36
2022-08-04T13:00:30.550Z,25.13
2022-08-04T13:03:06.278Z,24.87
2022-08-04T13:05:38.885Z,25.14
2022-08-04T13:08:07.101Z,25.67
2022-08-04T13:10:39.399Z,25.22
2022-08-04T13:13:11.597Z,25.51
2022-08-04T13:15:47.660Z,25.60
2022-08-04T13:18:29.293Z,25.88
2022-08-04T13:21:20.414Z,26.83
2022-08-04T13:24:09.790Z,27.80
2022-08-04T13:26:43.349Z,28.99
2022-08-04T13:29:22.011Z,29.55
2022-08-04T13:32:09.901Z,30.02
2022-08-04T13:34:40.178Z,30.63
2022-08-04T13:37:08.388Z,30.83
2022-08-04T13:39:36.035Z,30.96
2022-08-04T13:42:08.265Z,31.82
2022-08-04T13:44:38.329Z,31.90
2022-08-04T13:47:16.699Z,31.65
2022-08-04T13:50:15.625Z,31.88
2022-08-04T13:52:44.027Z,31.56
2022-08-04T13:55:29.961Z,31.91
2022-08-04T13:58:01.116Z,31.34
2022-08-04T14:00:40.255Z,31.73
2022-08-04T14:03:23.281Z,31.92
2022-08-04T14:06:14.581Z,32.18
2022-08-04T14:08:51.054Z,32.40
2022-08-04T14:12:06.521Z,32.79
2022-08-04T14:14:28.669Z,32.72
2022-08-04T14:17:19.909Z,33.18
2022-08-04T14:19:50.094Z,32.87
2022-08-04T14:22:25.644Z,33.01
2022-08-04T14:25:15.520Z,32.41
2022-08-04T14:27:54.774Z,32.08
2022-08-04T14:30:25.349Z,32.18
2022-08-04T14:34:01.616Z,32.90
2022-08-04T14:35:59.509Z,32.87
2022-08-04T14:38:56.439Z,32.67
2022-08-04T14:41:29.754Z,33.46
2022-08-04T14:43:58.632Z,33.46
2022-08-04T14:46:30.468Z,33.16
2022-08-04T14:49:12.021Z,33.62
2022-08-04T14:51:41.869Z,33.35
2022-08-04T14:54:15.643Z,32.99
2022-08-04T14:56:53.117Z,32.62
2022-08-04T14:59:19.721Z,32.30
2022-08-04T15:02:00.913Z,31.80
2022-08-04T15:04:31.382Z,31.35
2022-08-04T15:06:58.775Z,31.12
2022-08-04T15:09:25.565Z,30.12
2022-08-04T15:11:52.215Z,30.07
2022-08-04T15:14:36.477Z,29.52
2022-08-04T15:17:12.184Z,29.32
2022-08-04T15:19:55.968Z,28.92
2022-08-04T15:22:22.675Z,28.74
2022-08-04T15:24:55.253Z,28.08
2022-08-04T15:27:26.583Z,27.86
2022-08-04T15:30:00.645Z,27.40
2022-08-04T15:32:33.041Z,27.02
2022-08-04T15:35:35.121Z,26.88
2022-08-04T15:38:09.187Z,27.15
2022-08-04T15:40:56.299Z,26.09
2022-08-04T15:43:41.328Z,25.83
2022-08-04T15:46:42.652Z,26.24
2022-08-04T15:48:54.225Z,25.99
2022-08-04T15:51:31.767Z,26.07
2022-08-04T15:54:23.442Z,26.25
2022-08-04T15:57:02.001Z,26.60
2022-08-04T16:00:00.082Z,26.30
2022-08-04T16:02:32.412Z,26.80
2022-08-04T16:05:18.045Z,26.98
2022-08-04T16:08:08.405Z,27.06
2022-08-04T16:10:36.114Z,27.57
2022-08-04T16:13:08.637Z,27.72
2022-08-04T16:15:48.879Z,27.76
2022-08-04T16:18:30.547Z,28.04
2022-08-04T16:20:59.332Z,28.66
2022-08-04T16:23:55.118Z,29.78
2022-08-04T16:26:45.313Z,29.87
2022-08-04T16:29:32.467Z,30.19
2022-08-04T16:32:20.384Z,30.94
2022-08-04T16:34:55.649Z,31.14
2022-08-04T16:37:37.826Z,32.25
2022-08-04T16:40:34.590Z,33.18
2022-08-04T16:43:13.862Z,33.86
2022-08-04T16:45:54.758Z,34.60
2022-08-04T16:48:26.935Z,34.70
2022-08-04T16:51:31.454Z,36.28
2022-08-04T16:54:05.487Z,36.82
2022-08-04T16:56:34.737Z,37.37
2022-08-04T16:59:12.859Z,38.84
2022-08-04T17:01:51.025Z,40.21
2022-08-04T17:04:17.976Z,40.77
2022-08-04T17:06:48.522Z,41.63
2022-08-04T17:09:17.220Z,43.56
2022-08-04T17:11:45.144Z,44.32
2022-08-04T17:14:12.023Z,45.08
2022-08-04T17:16:41.551Z,46.60
2022-08-04T17:19:20.425Z,47.25
2022-08-04T17:21:58.864Z,47.93
2022-08-04T17:24:29.212Z,49.07
2022-08-04T17:26:57.750Z,49.66
2022-08-04T17:32:17.284Z,50.99
2022-08-04T17:34:48.556Z,52.47
2022-08-04T17:40:22.730Z,54.66
2022-08-04T17:44:02.950Z,55.76
2022-08-04T17:46:28.450Z,56.92
2022-08-04T17:49:10.044Z,57.71
2022-08-04T17:52:05.047Z,57.77
2022-08-04T17:54:39.040Z,56.95
2022-08-04T17:57:20.639Z,60.60
2022-08-04T18:00:00.026Z,58.90
2022-08-04T18:02:33.029Z,58.04
2022-08-04T18:05:06.888Z,59.10
2022-08-04T18:08:37.749Z,59.31
2022-08-04T18:10:55.182Z,61.85
2022-08-04T18:13:27.183Z,59.93
2022-08-04T18:16:04.350Z,61.73
2022-08-04T18:18:31.012Z,60.35
2022-08-04T18:20:59.720Z,60.29
2022-08-04T18:23:31.437Z,61.28
2022-08-04T18:25:58.731Z,61.43
2022-08-04T18:28:26.645Z,61.88
2022-08-04T18:30:55.234Z,62.35
2022-08-04T18:33:39.489Z,62.19
2022-08-04T18:36:34.732Z,62.27
2022-08-04T18:38:55.716Z,62.96
2022-08-04T18:41:25.066Z,63.57
2022-08-04T18:43:56.036Z,64.50
2022-08-04T18:46:26.966Z,65.83
2022-08-04T18:48:53.853Z,65.44
2022-08-04T18:51:23.548Z,65.97
2022-08-04T18:53:59.091Z,66.63
2022-08-04T18:56:29.969Z,67.03
2022-08-04T18:59:01.217Z,67.77
2022-08-04T19:01:30.120Z,68.52
2022-08-04T19:04:33.587Z,69.19
2022-08-04T19:07:28.831Z,69.93
2022-08-04T19:09:52.214Z,70.75
2022-08-04T19:12:26.816Z,70.82
2022-08-04T19:15:08.126Z,71.76
2022-08-04T19:17:53.456Z,72.29
2022-08-04T19:20:26.322Z,72.52
2022-08-04T19:26:02.783Z,73.71
2022-08-04T19:28:31.699Z,74.31
2022-08-04T19:31:01.461Z,74.43
2022-08-04T19:33:55.227Z,75.00
2022-08-04T19:36:17.051Z,75.35
2022-08-04T19:39:04.652Z,75.99
2022-08-04T19:42:04.445Z,76.43
2022-08-04T19:44:24.900Z,76.86
2022-08-04T19:46:56.025Z,77.50
2022-08-04T19:50:05.198Z,77.92
2022-08-04T19:52:13.545Z,78.58
2022-08-04T19:54:41.210Z,78.99
2022-08-04T19:57:08.134Z,80.04
2022-08-04T19:59:35.500Z,80.99
2022-08-04T20:02:01.969Z,82.16
2022-08-04T20:04:28.506Z,82.11
2022-08-04T20:06:57.806Z,83.37
2022-08-04T20:09:27.073Z,83.87
2022-08-04T20:11:57.748Z,84.83
2022-08-04T20:14:32.569Z,85.46
2022-08-04T20:17:01.434Z,86.21
2022-08-04T20:19:27.900Z,86.90
2022-08-04T20:21:56.932Z,87.79
2022-08-04T20:24:39.860Z,88.30
2022-08-04T20:27:21.960Z,88.99
2022-08-04T20:29:50.592Z,89.93
2022-08-04T20:32:22.577Z,90.90
2022-08-04T20:34:51.423Z,91.74
2022-08-04T20:37:19.289Z,92.18
2022-08-04T20:39:54.641Z,92.92
2022-08-04T20:42:27.006Z,93.31
2022-08-04T20:44:55.451Z,94.28
2022-08-04T20:47:22.121Z,95.42
2022-08-04T20:49:49.071Z,95.78
2022-08-04T20:52:20.361Z,96.46
2022-08-04T20:54:48.408Z,97.79
2022-08-04T20:57:16.799Z,98.29
2022-08-04T20:59:57.771Z,98.84
2022-08-04T21:02:27.085Z,100.00
2022-08-04T21:04:53.699Z,100.00
2022-08-04T21:07:21.817Z,100.00
2022-08-04T21:09:50.889Z,100.00
2022-08-04T21:12:35.744Z,100.00
2022-08-04T21:15:14.478Z,100.00
2022-08-04T21:17:57.959Z,100.00
2022-08-04T21:20:30.092Z,100.00
2022-08-04T21:23:01.632Z,100.00
2022-08-04T21:25:28.912Z,100.00
2022-08-04T21:27:55.550Z,100.00
2022-08-04T21:30:26.587Z,100.00
2022-08-04T21:35:40.589Z,100.00
2022-08-04T21:40:54.613Z,100.00
2022-08-04T21:43:23.561Z,100.00
2022-08-04T21:45:54.856Z,100.00
2022-08-04T21:48:21.381Z,100.00
2022-08-04T21:50:50.472Z,100.00
2022-08-04T21:53:19.856Z,100.00
2022-08-04T21:56:06.816Z,100.00
2022-08-04T21:58:34.419Z,100.00
2022-08-04T22:01:00.888Z,100.00
2022-08-04T22:03:53.894Z,100.00
2022-08-04T22:06:28.211Z,100.00
2022-08-04T22:08:56.253Z,100.00
2022-08-04T22:11:26.034Z,100.00
2022-08-04T22:14:11.131Z,100.00
2022-08-04T22:16:39.793Z,100.00
2022-08-04T22:19:06.837Z,100.00
2022-08-04T22:21:39.208Z,100.00
2022-08-04T22:24:13.654Z,100.00
2022-08-04T22:26:40.810Z,100.00
2022-08-04T22:29:07.408Z,100.00
2022-08-04T22:31:56.360Z,100.00
2022-08-04T22:34:24.245Z,100.00
2022-08-04T22:36:50.862Z,100.00
2022-08-04T22:39:19.039Z,100.00
2022-08-04T22:41:48.895Z,100.00
2022-08-04T22:44:33.038Z,100.00
2022-08-04T22:46:59.587Z,100.00
2022-08-04T22:49:31.467Z,100.00
2022-08-04T22:51:58.556Z,100.00
2022-08-04T22:54:26.017Z,100.00
2022-08-04T22:56:55.196Z,100.00
2022-08-04T22:59:23.421Z,100.00
2022-08-04T23:01:59.180Z,100.00
2022-08-04T23:04:29.699Z,100.00
2022-08-04T23:06:56.265Z,100.00
2022-08-04T23:09:49.090Z,100.00
2022-08-04T23:12:27.385Z,100.00
2022-08-04T23:14:58.633Z,100.00
2022-08-04T23:17:27.295Z,100.00
2022-08-04T23:19:57.406Z,100.00
2022-08-04T23:22:41.187Z,100.00
2022-08-04T23:25:15.922Z,100.00
2022-08-04T23:27:50.997Z,100.00
2022-08-04T23:30:24.631Z,100.00
2022-08-04T23:32:56.532Z,100.00
2022-08-04T23:35:23.546Z,100.00
2022-08-04T23:37:57.769Z,100.00
2022-08-04T23:40:33.051Z,100.00
2022-08-04T23:43:12.186Z,100.00
2022-08-04T23:46:08.273Z,100.00
2022-08-04T23:48:36.818Z,100.00
2022-08-04T23:51:14.703Z,100.00
2022-08-04T23:54:02.037Z,100.00
2022-08-04T23:56:29.566Z,100.00
2022-08-04T23:58:56.315Z,100.00
